sensor_id;sensor_type;location;lat;lon;timestamp;P1;durP1;ratioP1;P2;durP2;ratioP2
13731;SDS011;6937;56.096;12.664;2023-05-10T00:01:43;2.50;;;2.25;;
13731;SDS011;6937;56.096;12.664;2023-05-10T00:04:08;4.60;;;2.58;;
13731;SDS011;6937;56.096;12.664;2023-05-10T00:06:34;4.88;;;2.97;;
13731;SDS011;6937;56.096;12.664;2023-05-10T00:08:59;2.83;;;2.00;;
13731;SDS011;6937;56.096;12.664;2023-05-10T00:11:25;4.25;;;2.30;;
13731;SDS011;6937;56.096;12.664;2023-05-10T00:13:50;4.20;;;2.42;;
13731;SDS011;6937;56.096;12.664;2023-05-10T00:16:16;4.50;;;2.30;;
13731;SDS011;6937;56.096;12.664;2023-05-10T00:18:41;4.63;;;2.35;;
13731;SDS011;6937;56.096;12.664;2023-05-10T00:21:06;3.42;;;2.40;;
13731;SDS011;6937;56.096;12.664;2023-05-10T00:23:32;7.55;;;2.60;;
13731;SDS011;6937;56.096;12.664;2023-05-10T00:25:57;3.25;;;2.50;;
13731;SDS011;6937;56.096;12.664;2023-05-10T00:28:23;3.30;;;2.22;;
13731;SDS011;6937;56.096;12.664;2023-05-10T00:30:48;4.80;;;2.58;;
13731;SDS011;6937;56.096;12.664;2023-05-10T00:33:14;4.45;;;2.47;;
13731;SDS011;6937;56.096;12.664;2023-05-10T00:35:39;5.10;;;2.45;;
13731;SDS011;6937;56.096;12.664;2023-05-10T00:38:05;6.10;;;2.70;;
13731;SDS011;6937;56.096;12.664;2023-05-10T00:40:31;4.20;;;2.45;;
13731;SDS011;6937;56.096;12.664;2023-05-10T00:42:57;4.90;;;2.40;;
13731;SDS011;6937;56.096;12.664;2023-05-10T00:45:23;3.92;;;2.40;;
13731;SDS011;6937;56.096;12.664;2023-05-10T00:47:50;4.65;;;2.40;;
13731;SDS011;6937;56.096;12.664;2023-05-10T00:50:19;6.15;;;2.58;;
13731;SDS011;6937;56.096;12.664;2023-05-10T00:52:45;2.95;;;2.47;;
13731;SDS011;6937;56.096;12.664;2023-05-10T00:55:11;5.40;;;2.67;;
13731;SDS011;6937;56.096;12.664;2023-05-10T00:57:37;3.65;;;2.50;;
13731;SDS011;6937;56.096;12.664;2023-05-10T01:00:03;5.43;;;2.60;;
13731;SDS011;6937;56.096;12.664;2023-05-10T01:02:28;3.83;;;2.67;;
13731;SDS011;6937;56.096;12.664;2023-05-10T01:04:54;4.50;;;2.47;;
13731;SDS011;6937;56.096;12.664;2023-05-10T01:07:20;4.13;;;2.65;;
13731;SDS011;6937;56.096;12.664;2023-05-10T01:09:45;4.55;;;2.92;;
13731;SDS011;6937;56.096;12.664;2023-05-10T01:12:11;3.97;;;2.50;;
13731;SDS011;6937;56.096;12.664;2023-05-10T01:14:36;3.83;;;2.65;;
13731;SDS011;6937;56.096;12.664;2023-05-10T01:17:02;5.35;;;2.38;;
13731;SDS011;6937;56.096;12.664;2023-05-10T01:19:29;3.40;;;2.40;;
13731;SDS011;6937;56.096;12.664;2023-05-10T01:22:09;5.63;;;2.67;;
13731;SDS011;6937;56.096;12.664;2023-05-10T01:25:30;4.85;;;3.08;;
13731;SDS011;6937;56.096;12.664;2023-05-10T01:28:26;4.50;;;2.58;;
13731;SDS011;6937;56.096;12.664;2023-05-10T01:34:16;5.32;;;2.67;;
13731;SDS011;6937;56.096;12.664;2023-05-10T01:36:51;4.05;;;2.50;;
13731;SDS011;6937;56.096;12.664;2023-05-10T01:42:06;4.30;;;2.88;;
13731;SDS011;6937;56.096;12.664;2023-05-10T01:49:54;4.63;;;2.67;;
13731;SDS011;6937;56.096;12.664;2023-05-10T01:52:32;4.20;;;3.00;;
13731;SDS011;6937;56.096;12.664;2023-05-10T01:55:02;4.72;;;2.80;;
13731;SDS011;6937;56.096;12.664;2023-05-10T01:57:33;4.75;;;3.25;;
13731;SDS011;6937;56.096;12.664;2023-05-10T02:00:03;3.92;;;2.78;;
13731;SDS011;6937;56.096;12.664;2023-05-10T02:02:29;4.65;;;3.20;;
13731;SDS011;6937;56.096;12.664;2023-05-10T02:05:00;5.75;;;2.70;;
13731;SDS011;6937;56.096;12.664;2023-05-10T02:07:27;4.25;;;2.78;;
13731;SDS011;6937;56.096;12.664;2023-05-10T02:09:53;6.65;;;2.80;;
13731;SDS011;6937;56.096;12.664;2023-05-10T02:12:20;4.03;;;2.75;;
13731;SDS011;6937;56.096;12.664;2023-05-10T02:14:48;6.20;;;2.97;;
13731;SDS011;6937;56.096;12.664;2023-05-10T02:17:16;6.05;;;3.08;;
13731;SDS011;6937;56.096;12.664;2023-05-10T02:19:42;4.88;;;2.83;;
13731;SDS011;6937;56.096;12.664;2023-05-10T02:22:09;2.92;;;2.60;;
13731;SDS011;6937;56.096;12.664;2023-05-10T02:24:35;6.72;;;3.30;;
13731;SDS011;6937;56.096;12.664;2023-05-10T02:27:02;4.82;;;3.08;;
13731;SDS011;6937;56.096;12.664;2023-05-10T02:29:29;3.30;;;2.90;;
13731;SDS011;6937;56.096;12.664;2023-05-10T02:31:57;3.17;;;2.75;;
13731;SDS011;6937;56.096;12.664;2023-05-10T02:34:27;5.40;;;2.80;;
13731;SDS011;6937;56.096;12.664;2023-05-10T02:36:53;5.20;;;2.90;;
13731;SDS011;6937;56.096;12.664;2023-05-10T02:39:21;4.47;;;2.70;;
13731;SDS011;6937;56.096;12.664;2023-05-10T02:41:48;4.97;;;2.75;;
13731;SDS011;6937;56.096;12.664;2023-05-10T02:44:16;6.70;;;3.00;;
13731;SDS011;6937;56.096;12.664;2023-05-10T02:46:43;4.47;;;2.83;;
13731;SDS011;6937;56.096;12.664;2023-05-10T02:49:09;4.68;;;2.80;;
13731;SDS011;6937;56.096;12.664;2023-05-10T02:51:35;4.63;;;2.92;;
13731;SDS011;6937;56.096;12.664;2023-05-10T02:54:27;6.15;;;3.25;;
13731;SDS011;6937;56.096;12.664;2023-05-10T02:56:56;7.28;;;2.85;;
13731;SDS011;6937;56.096;12.664;2023-05-10T02:59:23;3.65;;;2.75;;
13731;SDS011;6937;56.096;12.664;2023-05-10T03:01:48;4.55;;;2.50;;
13731;SDS011;6937;56.096;12.664;2023-05-10T03:04:13;5.93;;;2.90;;
13731;SDS011;6937;56.096;12.664;2023-05-10T03:06:39;7.85;;;2.90;;
13731;SDS011;6937;56.096;12.664;2023-05-10T03:09:05;5.25;;;2.80;;
13731;SDS011;6937;56.096;12.664;2023-05-10T03:17:34;5.82;;;3.00;;
13731;SDS011;6937;56.096;12.664;2023-05-10T03:20:09;6.05;;;2.97;;
13731;SDS011;6937;56.096;12.664;2023-05-10T03:22:38;6.20;;;2.85;;
13731;SDS011;6937;56.096;12.664;2023-05-10T03:25:08;4.25;;;3.17;;
13731;SDS011;6937;56.096;12.664;2023-05-10T03:27:38;6.30;;;2.90;;
13731;SDS011;6937;56.096;12.664;2023-05-10T03:30:05;3.17;;;2.80;;
13731;SDS011;6937;56.096;12.664;2023-05-10T03:32:33;5.18;;;2.90;;
13731;SDS011;6937;56.096;12.664;2023-05-10T03:34:59;9.20;;;2.90;;
13731;SDS011;6937;56.096;12.664;2023-05-10T03:37:25;5.57;;;3.03;;
13731;SDS011;6937;56.096;12.664;2023-05-10T03:39:50;3.30;;;3.00;;
13731;SDS011;6937;56.096;12.664;2023-05-10T03:42:16;4.68;;;2.67;;
13731;SDS011;6937;56.096;12.664;2023-05-10T03:44:42;5.85;;;3.08;;
13731;SDS011;6937;56.096;12.664;2023-05-10T03:47:08;4.20;;;2.50;;
13731;SDS011;6937;56.096;12.664;2023-05-10T03:49:33;4.93;;;2.75;;
13731;SDS011;6937;56.096;12.664;2023-05-10T03:51:58;3.67;;;2.97;;
13731;SDS011;6937;56.096;12.664;2023-05-10T03:54:24;3.60;;;2.97;;
13731;SDS011;6937;56.096;12.664;2023-05-10T03:56:49;8.63;;;3.30;;
13731;SDS011;6937;56.096;12.664;2023-05-10T03:59:14;5.70;;;3.00;;
13731;SDS011;6937;56.096;12.664;2023-05-10T04:01:40;3.63;;;2.97;;
13731;SDS011;6937;56.096;12.664;2023-05-10T04:04:05;5.20;;;3.15;;
13731;SDS011;6937;56.096;12.664;2023-05-10T04:06:31;5.88;;;2.97;;
13731;SDS011;6937;56.096;12.664;2023-05-10T04:08:56;7.07;;;2.90;;
13731;SDS011;6937;56.096;12.664;2023-05-10T04:11:25;3.42;;;2.90;;
13731;SDS011;6937;56.096;12.664;2023-05-10T04:13:50;4.63;;;2.70;;
13731;SDS011;6937;56.096;12.664;2023-05-10T04:16:15;4.72;;;3.10;;
13731;SDS011;6937;56.096;12.664;2023-05-10T04:18:41;3.78;;;2.95;;
13731;SDS011;6937;56.096;12.664;2023-05-10T04:21:12;4.53;;;3.10;;
13731;SDS011;6937;56.096;12.664;2023-05-10T04:23:38;5.00;;;3.25;;
13731;SDS011;6937;56.096;12.664;2023-05-10T04:26:03;7.10;;;2.97;;
13731;SDS011;6937;56.096;12.664;2023-05-10T04:28:29;4.25;;;3.00;;
13731;SDS011;6937;56.096;12.664;2023-05-10T04:31:04;4.30;;;2.85;;
13731;SDS011;6937;56.096;12.664;2023-05-10T04:33:30;4.35;;;2.95;;
13731;SDS011;6937;56.096;12.664;2023-05-10T04:35:56;4.13;;;2.90;;
13731;SDS011;6937;56.096;12.664;2023-05-10T04:38:21;4.22;;;2.92;;
13731;SDS011;6937;56.096;12.664;2023-05-10T04:40:47;5.13;;;3.28;;
13731;SDS011;6937;56.096;12.664;2023-05-10T04:43:12;4.35;;;2.67;;
13731;SDS011;6937;56.096;12.664;2023-05-10T04:45:38;4.68;;;3.10;;
13731;SDS011;6937;56.096;12.664;2023-05-10T04:48:03;3.83;;;2.90;;
13731;SDS011;6937;56.096;12.664;2023-05-10T04:50:28;3.70;;;3.00;;
13731;SDS011;6937;56.096;12.664;2023-05-10T04:52:54;5.55;;;3.15;;
13731;SDS011;6937;56.096;12.664;2023-05-10T04:55:19;4.65;;;3.05;;
13731;SDS011;6937;56.096;12.664;2023-05-10T04:57:45;3.80;;;3.15;;
13731;SDS011;6937;56.096;12.664;2023-05-10T05:00:10;4.03;;;2.83;;
13731;SDS011;6937;56.096;12.664;2023-05-10T05:02:36;6.38;;;3.30;;
13731;SDS011;6937;56.096;12.664;2023-05-10T05:05:01;4.75;;;2.83;;
13731;SDS011;6937;56.096;12.664;2023-05-10T05:07:27;4.15;;;3.08;;
13731;SDS011;6937;56.096;12.664;2023-05-10T05:09:52;3.55;;;2.80;;
13731;SDS011;6937;56.096;12.664;2023-05-10T05:12:18;4.75;;;2.95;;
13731;SDS011;6937;56.096;12.664;2023-05-10T05:14:43;6.90;;;3.10;;
13731;SDS011;6937;56.096;12.664;2023-05-10T05:17:10;8.10;;;3.45;;
13731;SDS011;6937;56.096;12.664;2023-05-10T05:19:35;4.68;;;2.95;;
13731;SDS011;6937;56.096;12.664;2023-05-10T05:22:00;6.93;;;3.05;;
13731;SDS011;6937;56.096;12.664;2023-05-10T05:24:26;5.20;;;2.97;;
13731;SDS011;6937;56.096;12.664;2023-05-10T05:26:51;3.58;;;2.95;;
13731;SDS011;6937;56.096;12.664;2023-05-10T05:29:16;7.57;;;3.30;;
13731;SDS011;6937;56.096;12.664;2023-05-10T05:31:42;5.25;;;3.10;;
13731;SDS011;6937;56.096;12.664;2023-05-10T05:34:07;6.50;;;3.25;;
13731;SDS011;6937;56.096;12.664;2023-05-10T05:36:36;4.40;;;3.22;;
13731;SDS011;6937;56.096;12.664;2023-05-10T05:39:05;4.15;;;3.20;;
13731;SDS011;6937;56.096;12.664;2023-05-10T05:41:31;5.20;;;3.13;;
13731;SDS011;6937;56.096;12.664;2023-05-10T05:43:56;4.40;;;2.80;;
13731;SDS011;6937;56.096;12.664;2023-05-10T05:46:21;6.35;;;3.03;;
13731;SDS011;6937;56.096;12.664;2023-05-10T05:48:47;5.32;;;3.22;;
13731;SDS011;6937;56.096;12.664;2023-05-10T05:51:12;3.85;;;3.03;;
13731;SDS011;6937;56.096;12.664;2023-05-10T05:53:37;4.45;;;3.28;;
13731;SDS011;6937;56.096;12.664;2023-05-10T05:56:03;4.30;;;3.30;;
13731;SDS011;6937;56.096;12.664;2023-05-10T05:58:28;5.25;;;3.10;;
13731;SDS011;6937;56.096;12.664;2023-05-10T06:00:54;5.90;;;3.20;;
13731;SDS011;6937;56.096;12.664;2023-05-10T06:03:19;6.93;;;3.05;;
13731;SDS011;6937;56.096;12.664;2023-05-10T06:05:45;3.83;;;3.10;;
13731;SDS011;6937;56.096;12.664;2023-05-10T06:08:11;5.38;;;3.00;;
13731;SDS011;6937;56.096;12.664;2023-05-10T06:10:37;7.10;;;3.30;;
13731;SDS011;6937;56.096;12.664;2023-05-10T06:13:02;5.53;;;3.17;;
13731;SDS011;6937;56.096;12.664;2023-05-10T06:15:28;5.55;;;2.83;;
13731;SDS011;6937;56.096;12.664;2023-05-10T06:17:53;6.15;;;3.38;;
13731;SDS011;6937;56.096;12.664;2023-05-10T06:20:18;5.13;;;3.30;;
13731;SDS011;6937;56.096;12.664;2023-05-10T06:22:44;6.93;;;3.40;;
13731;SDS011;6937;56.096;12.664;2023-05-10T06:25:10;6.25;;;3.30;;
13731;SDS011;6937;56.096;12.664;2023-05-10T06:27:36;6.03;;;3.17;;
13731;SDS011;6937;56.096;12.664;2023-05-10T06:30:01;4.28;;;3.10;;
13731;SDS011;6937;56.096;12.664;2023-05-10T06:32:27;4.57;;;3.20;;
13731;SDS011;6937;56.096;12.664;2023-05-10T06:34:53;6.18;;;3.50;;
13731;SDS011;6937;56.096;12.664;2023-05-10T06:37:18;5.57;;;3.10;;
13731;SDS011;6937;56.096;12.664;2023-05-10T06:39:43;6.63;;;3.17;;
13731;SDS011;6937;56.096;12.664;2023-05-10T06:42:09;7.03;;;3.22;;
13731;SDS011;6937;56.096;12.664;2023-05-10T06:44:34;6.95;;;3.70;;
13731;SDS011;6937;56.096;12.664;2023-05-10T06:47:00;5.82;;;3.65;;
13731;SDS011;6937;56.096;12.664;2023-05-10T06:49:25;4.45;;;3.10;;
13731;SDS011;6937;56.096;12.664;2023-05-10T06:51:50;6.18;;;3.20;;
13731;SDS011;6937;56.096;12.664;2023-05-10T06:54:16;6.07;;;3.30;;
13731;SDS011;6937;56.096;12.664;2023-05-10T06:56:42;7.15;;;3.30;;
13731;SDS011;6937;56.096;12.664;2023-05-10T06:59:08;7.13;;;3.17;;
13731;SDS011;6937;56.096;12.664;2023-05-10T07:01:33;6.47;;;3.03;;
13731;SDS011;6937;56.096;12.664;2023-05-10T07:03:58;6.25;;;3.35;;
13731;SDS011;6937;56.096;12.664;2023-05-10T07:06:24;6.70;;;3.65;;
13731;SDS011;6937;56.096;12.664;2023-05-10T07:08:49;6.43;;;3.10;;
13731;SDS011;6937;56.096;12.664;2023-05-10T07:11:15;6.47;;;3.45;;
13731;SDS011;6937;56.096;12.664;2023-05-10T07:13:40;6.15;;;2.92;;
13731;SDS011;6937;56.096;12.664;2023-05-10T07:16:08;5.72;;;3.20;;
13731;SDS011;6937;56.096;12.664;2023-05-10T07:18:35;5.70;;;3.20;;
13731;SDS011;6937;56.096;12.664;2023-05-10T07:21:00;6.40;;;3.22;;
13731;SDS011;6937;56.096;12.664;2023-05-10T07:23:26;5.60;;;3.30;;
13731;SDS011;6937;56.096;12.664;2023-05-10T07:25:52;5.93;;;3.30;;
13731;SDS011;6937;56.096;12.664;2023-05-10T07:28:17;7.70;;;3.35;;
13731;SDS011;6937;56.096;12.664;2023-05-10T07:30:43;4.05;;;3.25;;
13731;SDS011;6937;56.096;12.664;2023-05-10T07:33:09;6.82;;;3.25;;
13731;SDS011;6937;56.096;12.664;2023-05-10T07:35:36;9.07;;;3.50;;
13731;SDS011;6937;56.096;12.664;2023-05-10T07:38:02;8.27;;;3.58;;
13731;SDS011;6937;56.096;12.664;2023-05-10T07:40:28;4.50;;;3.20;;
13731;SDS011;6937;56.096;12.664;2023-05-10T07:42:53;6.57;;;3.38;;
13731;SDS011;6937;56.096;12.664;2023-05-10T07:45:19;9.38;;;3.15;;
13731;SDS011;6937;56.096;12.664;2023-05-10T07:47:44;5.22;;;3.00;;
13731;SDS011;6937;56.096;12.664;2023-05-10T07:50:10;8.00;;;3.38;;
13731;SDS011;6937;56.096;12.664;2023-05-10T07:52:35;8.07;;;3.50;;
13731;SDS011;6937;56.096;12.664;2023-05-10T07:55:01;8.18;;;3.40;;
13731;SDS011;6937;56.096;12.664;2023-05-10T07:57:26;4.93;;;2.97;;
13731;SDS011;6937;56.096;12.664;2023-05-10T07:59:51;5.10;;;3.10;;
13731;SDS011;6937;56.096;12.664;2023-05-10T08:02:17;7.82;;;3.30;;
13731;SDS011;6937;56.096;12.664;2023-05-10T08:04:42;6.60;;;3.20;;
13731;SDS011;6937;56.096;12.664;2023-05-10T08:07:07;5.88;;;3.17;;
13731;SDS011;6937;56.096;12.664;2023-05-10T08:09:33;7.10;;;3.20;;
13731;SDS011;6937;56.096;12.664;2023-05-10T08:11:58;5.55;;;2.90;;
13731;SDS011;6937;56.096;12.664;2023-05-10T08:14:24;4.97;;;2.90;;
13731;SDS011;6937;56.096;12.664;2023-05-10T08:16:50;7.20;;;2.90;;
13731;SDS011;6937;56.096;12.664;2023-05-10T08:19:16;4.43;;;3.10;;
13731;SDS011;6937;56.096;12.664;2023-05-10T08:21:44;4.75;;;3.22;;
13731;SDS011;6937;56.096;12.664;2023-05-10T08:24:10;4.07;;;3.20;;
13731;SDS011;6937;56.096;12.664;2023-05-10T08:26:35;8.20;;;3.00;;
13731;SDS011;6937;56.096;12.664;2023-05-10T08:29:00;7.10;;;3.50;;
13731;SDS011;6937;56.096;12.664;2023-05-10T08:31:26;8.27;;;3.38;;
13731;SDS011;6937;56.096;12.664;2023-05-10T08:33:51;4.63;;;2.88;;
13731;SDS011;6937;56.096;12.664;2023-05-10T08:36:17;4.82;;;2.70;;
13731;SDS011;6937;56.096;12.664;2023-05-10T08:38:46;7.03;;;3.13;;
13731;SDS011;6937;56.096;12.664;2023-05-10T08:41:21;4.10;;;2.92;;
13731;SDS011;6937;56.096;12.664;2023-05-10T08:43:54;5.57;;;2.70;;
13731;SDS011;6937;56.096;12.664;2023-05-10T08:46:20;4.80;;;2.92;;
13731;SDS011;6937;56.096;12.664;2023-05-10T08:48:47;5.82;;;3.35;;
13731;SDS011;6937;56.096;12.664;2023-05-10T08:51:16;6.80;;;3.08;;
13731;SDS011;6937;56.096;12.664;2023-05-10T08:53:43;6.15;;;3.30;;
13731;SDS011;6937;56.096;12.664;2023-05-10T08:56:09;6.57;;;3.10;;
13731;SDS011;6937;56.096;12.664;2023-05-10T08:58:35;4.00;;;2.85;;
13731;SDS011;6937;56.096;12.664;2023-05-10T09:01:01;3.70;;;2.90;;
13731;SDS011;6937;56.096;12.664;2023-05-10T09:03:27;5.05;;;3.28;;
13731;SDS011;6937;56.096;12.664;2023-05-10T09:05:52;3.88;;;3.25;;
13731;SDS011;6937;56.096;12.664;2023-05-10T09:08:18;11.82;;;3.28;;
13731;SDS011;6937;56.096;12.664;2023-05-10T09:10:44;9.25;;;3.60;;
13731;SDS011;6937;56.096;12.664;2023-05-10T09:13:12;6.05;;;2.92;;
13731;SDS011;6937;56.096;12.664;2023-05-10T09:15:40;6.68;;;2.88;;
13731;SDS011;6937;56.096;12.664;2023-05-10T09:18:05;4.40;;;2.97;;
13731;SDS011;6937;56.096;12.664;2023-05-10T09:20:31;3.92;;;2.45;;
13731;SDS011;6937;56.096;12.664;2023-05-10T09:22:56;5.97;;;3.35;;
13731;SDS011;6937;56.096;12.664;2023-05-10T09:25:21;8.73;;;3.13;;
13731;SDS011;6937;56.096;12.664;2023-05-10T09:27:47;4.40;;;3.00;;
13731;SDS011;6937;56.096;12.664;2023-05-10T09:30:16;5.03;;;2.83;;
13731;SDS011;6937;56.096;12.664;2023-05-10T09:32:48;5.90;;;3.00;;
13731;SDS011;6937;56.096;12.664;2023-05-10T09:35:14;5.60;;;3.10;;
13731;SDS011;6937;56.096;12.664;2023-05-10T09:37:41;4.47;;;3.00;;
13731;SDS011;6937;56.096;12.664;2023-05-10T09:40:15;4.50;;;3.03;;
13731;SDS011;6937;56.096;12.664;2023-05-10T09:42:42;6.13;;;2.97;;
13731;SDS011;6937;56.096;12.664;2023-05-10T09:45:15;6.00;;;3.10;;
13731;SDS011;6937;56.096;12.664;2023-05-10T09:47:40;4.35;;;3.38;;
13731;SDS011;6937;56.096;12.664;2023-05-10T09:50:06;5.50;;;3.05;;
13731;SDS011;6937;56.096;12.664;2023-05-10T09:55:17;5.82;;;2.88;;
13731;SDS011;6937;56.096;12.664;2023-05-10T09:57:45;6.25;;;3.30;;
13731;SDS011;6937;56.096;12.664;2023-05-10T10:00:11;3.03;;;2.80;;
13731;SDS011;6937;56.096;12.664;2023-05-10T10:02:44;3.17;;;2.65;;
13731;SDS011;6937;56.096;12.664;2023-05-10T10:05:11;5.25;;;2.88;;
13731;SDS011;6937;56.096;12.664;2023-05-10T10:07:37;3.30;;;2.53;;
13731;SDS011;6937;56.096;12.664;2023-05-10T10:10:02;3.90;;;2.90;;
13731;SDS011;6937;56.096;12.664;2023-05-10T10:12:29;6.70;;;3.00;;
13731;SDS011;6937;56.096;12.664;2023-05-10T10:14:55;5.35;;;2.83;;
13731;SDS011;6937;56.096;12.664;2023-05-10T10:17:22;4.28;;;3.00;;
13731;SDS011;6937;56.096;12.664;2023-05-10T10:19:52;5.88;;;3.20;;
13731;SDS011;6937;56.096;12.664;2023-05-10T10:22:17;9.38;;;2.92;;
13731;SDS011;6937;56.096;12.664;2023-05-10T10:24:43;4.07;;;2.80;;
13731;SDS011;6937;56.096;12.664;2023-05-10T10:36:10;4.00;;;2.60;;
13731;SDS011;6937;56.096;12.664;2023-05-10T10:49:45;3.85;;;2.20;;
13731;SDS011;6937;56.096;12.664;2023-05-10T10:52:23;3.10;;;2.50;;
13731;SDS011;6937;56.096;12.664;2023-05-10T10:54:59;5.20;;;2.75;;
13731;SDS011;6937;56.096;12.664;2023-05-10T11:00:28;6.45;;;2.60;;
13731;SDS011;6937;56.096;12.664;2023-05-10T11:03:10;6.28;;;2.50;;
13731;SDS011;6937;56.096;12.664;2023-05-10T11:05:44;4.82;;;1.95;;
13731;SDS011;6937;56.096;12.664;2023-05-10T11:13:43;5.65;;;2.30;;
13731;SDS011;6937;56.096;12.664;2023-05-10T11:18:51;2.70;;;1.77;;
13731;SDS011;6937;56.096;12.664;2023-05-10T11:21:32;6.35;;;2.10;;
13731;SDS011;6937;56.096;12.664;2023-05-10T11:23:59;3.13;;;1.98;;
13731;SDS011;6937;56.096;12.664;2023-05-10T11:26:27;4.75;;;1.80;;
13731;SDS011;6937;56.096;12.664;2023-05-10T11:28:56;4.00;;;1.80;;
13731;SDS011;6937;56.096;12.664;2023-05-10T11:31:22;3.22;;;1.95;;
13731;SDS011;6937;56.096;12.664;2023-05-10T11:33:51;6.25;;;2.35;;
13731;SDS011;6937;56.096;12.664;2023-05-10T11:36:19;2.95;;;1.92;;
13731;SDS011;6937;56.096;12.664;2023-05-10T11:38:46;6.57;;;1.80;;
13731;SDS011;6937;56.096;12.664;2023-05-10T11:41:12;7.13;;;2.00;;
13731;SDS011;6937;56.096;12.664;2023-05-10T11:43:41;2.10;;;1.90;;
13731;SDS011;6937;56.096;12.664;2023-05-10T11:46:07;4.10;;;2.10;;
13731;SDS011;6937;56.096;12.664;2023-05-10T11:48:34;2.92;;;1.92;;
13731;SDS011;6937;56.096;12.664;2023-05-10T11:51:00;8.05;;;2.05;;
13731;SDS011;6937;56.096;12.664;2023-05-10T11:53:27;7.47;;;2.08;;
13731;SDS011;6937;56.096;12.664;2023-05-10T11:55:54;5.85;;;2.50;;
13731;SDS011;6937;56.096;12.664;2023-05-10T11:58:19;7.25;;;1.90;;
13731;SDS011;6937;56.096;12.664;2023-05-10T12:00:46;4.47;;;2.00;;
13731;SDS011;6937;56.096;12.664;2023-05-10T12:03:13;3.90;;;1.70;;
13731;SDS011;6937;56.096;12.664;2023-05-10T12:05:38;3.50;;;1.60;;
13731;SDS011;6937;56.096;12.664;2023-05-10T12:08:13;3.80;;;1.90;;
13731;SDS011;6937;56.096;12.664;2023-05-10T12:10:39;3.97;;;1.70;;
13731;SDS011;6937;56.096;12.664;2023-05-10T12:13:04;4.10;;;1.80;;
13731;SDS011;6937;56.096;12.664;2023-05-10T12:15:30;6.65;;;1.85;;
13731;SDS011;6937;56.096;12.664;2023-05-10T12:17:55;4.13;;;2.00;;
13731;SDS011;6937;56.096;12.664;2023-05-10T12:20:23;4.22;;;1.77;;
13731;SDS011;6937;56.096;12.664;2023-05-10T12:22:55;5.30;;;1.80;;
13731;SDS011;6937;56.096;12.664;2023-05-10T12:25:23;3.92;;;1.63;;
13731;SDS011;6937;56.096;12.664;2023-05-10T12:27:53;2.70;;;1.40;;
13731;SDS011;6937;56.096;12.664;2023-05-10T12:30:26;4.93;;;1.60;;
13731;SDS011;6937;56.096;12.664;2023-05-10T12:32:54;4.03;;;1.70;;
13731;SDS011;6937;56.096;12.664;2023-05-10T12:35:25;4.68;;;1.65;;
13731;SDS011;6937;56.096;12.664;2023-05-10T12:37:50;4.05;;;1.55;;
13731;SDS011;6937;56.096;12.664;2023-05-10T12:40:16;2.80;;;1.65;;
13731;SDS011;6937;56.096;12.664;2023-05-10T12:42:42;2.83;;;1.75;;
13731;SDS011;6937;56.096;12.664;2023-05-10T12:45:09;1.95;;;1.70;;
13731;SDS011;6937;56.096;12.664;2023-05-10T12:47:35;6.72;;;1.80;;
13731;SDS011;6937;56.096;12.664;2023-05-10T12:50:01;3.60;;;1.80;;
13731;SDS011;6937;56.096;12.664;2023-05-10T12:52:28;3.42;;;1.50;;
13731;SDS011;6937;56.096;12.664;2023-05-10T12:54:53;4.90;;;1.95;;
13731;SDS011;6937;56.096;12.664;2023-05-10T12:57:22;2.35;;;1.40;;
13731;SDS011;6937;56.096;12.664;2023-05-10T12:59:48;3.45;;;1.95;;
13731;SDS011;6937;56.096;12.664;2023-05-10T13:02:15;8.27;;;1.88;;
13731;SDS011;6937;56.096;12.664;2023-05-10T13:04:42;3.50;;;1.83;;
13731;SDS011;6937;56.096;12.664;2023-05-10T13:07:09;4.93;;;1.75;;
13731;SDS011;6937;56.096;12.664;2023-05-10T13:09:34;4.65;;;2.00;;
13731;SDS011;6937;56.096;12.664;2023-05-10T13:12:00;3.63;;;2.03;;
13731;SDS011;6937;56.096;12.664;2023-05-10T13:14:26;3.15;;;1.70;;
13731;SDS011;6937;56.096;12.664;2023-05-10T13:16:51;6.82;;;1.88;;
13731;SDS011;6937;56.096;12.664;2023-05-10T13:19:17;3.40;;;1.80;;
13731;SDS011;6937;56.096;12.664;2023-05-10T13:21:43;6.00;;;1.50;;
13731;SDS011;6937;56.096;12.664;2023-05-10T13:24:09;1.92;;;1.60;;
13731;SDS011;6937;56.096;12.664;2023-05-10T13:26:35;5.22;;;1.70;;
13731;SDS011;6937;56.096;12.664;2023-05-10T13:29:01;3.67;;;1.50;;
13731;SDS011;6937;56.096;12.664;2023-05-10T13:31:26;3.38;;;1.52;;
13731;SDS011;6937;56.096;12.664;2023-05-10T13:33:52;2.78;;;1.60;;
13731;SDS011;6937;56.096;12.664;2023-05-10T13:36:17;6.90;;;1.40;;
13731;SDS011;6937;56.096;12.664;2023-05-10T13:38:42;4.22;;;1.63;;
13731;SDS011;6937;56.096;12.664;2023-05-10T13:41:08;2.80;;;1.50;;
13731;SDS011;6937;56.096;12.664;2023-05-10T13:43:33;3.05;;;1.70;;
13731;SDS011;6937;56.096;12.664;2023-05-10T13:45:58;2.13;;;1.50;;
13731;SDS011;6937;56.096;12.664;2023-05-10T13:48:24;3.53;;;1.48;;
13731;SDS011;6937;56.096;12.664;2023-05-10T13:50:49;2.70;;;1.60;;
13731;SDS011;6937;56.096;12.664;2023-05-10T13:53:15;4.20;;;1.73;;
13731;SDS011;6937;56.096;12.664;2023-05-10T13:55:40;7.43;;;1.83;;
13731;SDS011;6937;56.096;12.664;2023-05-10T13:58:06;2.75;;;1.75;;
13731;SDS011;6937;56.096;12.664;2023-05-10T14:00:31;5.22;;;1.63;;
13731;SDS011;6937;56.096;12.664;2023-05-10T14:02:57;3.85;;;1.77;;
13731;SDS011;6937;56.096;12.664;2023-05-10T14:05:22;5.40;;;1.50;;
13731;SDS011;6937;56.096;12.664;2023-05-10T14:07:48;6.22;;;1.63;;
13731;SDS011;6937;56.096;12.664;2023-05-10T14:10:13;4.65;;;1.70;;
13731;SDS011;6937;56.096;12.664;2023-05-10T14:12:39;3.05;;;1.40;;
13731;SDS011;6937;56.096;12.664;2023-05-10T14:15:04;6.28;;;1.90;;
13731;SDS011;6937;56.096;12.664;2023-05-10T14:17:31;3.38;;;1.85;;
13731;SDS011;6937;56.096;12.664;2023-05-10T14:19:57;3.30;;;1.65;;
13731;SDS011;6937;56.096;12.664;2023-05-10T14:22:22;5.93;;;1.85;;
13731;SDS011;6937;56.096;12.664;2023-05-10T14:24:48;6.35;;;1.60;;
13731;SDS011;6937;56.096;12.664;2023-05-10T14:27:13;2.70;;;1.73;;
13731;SDS011;6937;56.096;12.664;2023-05-10T14:29:39;5.35;;;1.80;;
13731;SDS011;6937;56.096;12.664;2023-05-10T14:32:04;4.82;;;1.75;;
13731;SDS011;6937;56.096;12.664;2023-05-10T14:34:30;1.77;;;1.40;;
13731;SDS011;6937;56.096;12.664;2023-05-10T14:36:55;2.03;;;1.60;;
13731;SDS011;6937;56.096;12.664;2023-05-10T14:39:21;3.72;;;1.77;;
13731;SDS011;6937;56.096;12.664;2023-05-10T14:41:47;8.23;;;1.98;;
13731;SDS011;6937;56.096;12.664;2023-05-10T14:44:13;3.70;;;1.80;;
13731;SDS011;6937;56.096;12.664;2023-05-10T14:46:38;2.60;;;1.75;;
13731;SDS011;6937;56.096;12.664;2023-05-10T14:49:04;4.50;;;1.80;;
13731;SDS011;6937;56.096;12.664;2023-05-10T14:51:29;2.45;;;1.65;;
13731;SDS011;6937;56.096;12.664;2023-05-10T14:53:55;3.40;;;1.95;;
13731;SDS011;6937;56.096;12.664;2023-05-10T14:56:20;4.70;;;1.75;;
13731;SDS011;6937;56.096;12.664;2023-05-10T14:58:47;4.97;;;1.70;;
13731;SDS011;6937;56.096;12.664;2023-05-10T15:01:12;2.50;;;1.65;;
13731;SDS011;6937;56.096;12.664;2023-05-10T15:03:37;4.75;;;1.67;;
13731;SDS011;6937;56.096;12.664;2023-05-10T15:06:03;2.10;;;1.60;;
13731;SDS011;6937;56.096;12.664;2023-05-10T15:08:29;5.05;;;1.85;;
13731;SDS011;6937;56.096;12.664;2023-05-10T15:10:54;4.93;;;1.58;;
13731;SDS011;6937;56.096;12.664;2023-05-10T15:13:20;5.45;;;1.88;;
13731;SDS011;6937;56.096;12.664;2023-05-10T15:15:46;2.13;;;1.80;;
13731;SDS011;6937;56.096;12.664;2023-05-10T15:18:11;2.53;;;1.63;;
13731;SDS011;6937;56.096;12.664;2023-05-10T15:20:37;6.40;;;1.90;;
13731;SDS011;6937;56.096;12.664;2023-05-10T15:23:02;3.28;;;1.67;;
13731;SDS011;6937;56.096;12.664;2023-05-10T15:25:28;2.25;;;1.70;;
13731;SDS011;6937;56.096;12.664;2023-05-10T15:27:53;3.38;;;2.00;;
13731;SDS011;6937;56.096;12.664;2023-05-10T15:30:22;3.67;;;1.70;;
13731;SDS011;6937;56.096;12.664;2023-05-10T15:32:47;4.88;;;1.70;;
13731;SDS011;6937;56.096;12.664;2023-05-10T15:35:13;4.07;;;1.60;;
13731;SDS011;6937;56.096;12.664;2023-05-10T15:37:38;2.33;;;1.60;;